createdAt,value
2022-12-13T00:01:32.220Z,19.80
2022-12-13T00:04:01.541Z,20.10
2022-12-13T00:06:31.035Z,20.50
2022-12-13T00:08:58.739Z,20.70
2022-12-13T00:11:26.559Z,20.50
2022-12-13T00:13:54.041Z,20.80
2022-12-13T00:16:23.498Z,20.50
2022-12-13T00:18:58.773Z,20.80
2022-12-13T00:21:30.935Z,21.40
2022-12-13T00:23:59.370Z,21.40
2022-12-13T00:26:29.885Z,21.20
2022-12-13T00:28:59.204Z,20.80
2022-12-13T00:31:56.655Z,21.10
2022-12-13T00:34:13.495Z,21.50
2022-12-13T00:36:40.635Z,21.00
2022-12-13T00:39:07.580Z,20.60
2022-12-13T00:41:36.479Z,20.60
2022-12-13T00:44:05.115Z,21.70
2022-12-13T00:46:32.727Z,22.10
2022-12-13T00:49:01.641Z,21.60
2022-12-13T00:51:30.413Z,21.10
2022-12-13T00:53:58.814Z,20.70
2022-12-13T00:56:28.733Z,20.60
2022-12-13T00:58:56.677Z,20.70
2022-12-13T01:01:26.720Z,21.20
2022-12-13T01:03:55.654Z,21.40
2022-12-13T01:06:27.825Z,21.30
2022-12-13T01:08:54.843Z,21.40
2022-12-13T01:11:21.837Z,21.60
2022-12-13T01:13:48.818Z,21.90
2022-12-13T01:16:15.822Z,22.00
2022-12-13T01:18:43.100Z,22.30
2022-12-13T01:21:16.246Z,22.70
2022-12-13T01:23:47.711Z,22.10
2022-12-13T01:26:18.927Z,22.40
2022-12-13T01:28:46.247Z,22.40
2022-12-13T01:31:16.249Z,22.10
2022-12-13T01:33:43.845Z,22.00
2022-12-13T01:36:16.565Z,21.50
2022-12-13T01:38:43.710Z,21.90
2022-12-13T01:41:18.351Z,21.70
2022-12-13T01:43:48.068Z,21.80
2022-12-13T01:46:16.942Z,22.20
2022-12-13T01:48:53.714Z,21.60
2022-12-13T01:51:26.338Z,21.10
2022-12-13T01:53:54.210Z,21.10
2022-12-13T01:56:29.934Z,20.90
2022-12-13T01:58:59.840Z,21.00
2022-12-13T02:01:27.873Z,20.30
2022-12-13T02:03:55.138Z,19.90
2022-12-13T02:06:37.851Z,19.80
2022-12-13T02:09:07.049Z,19.60
2022-12-13T02:11:36.303Z,18.80
2022-12-13T02:14:03.719Z,18.30
2022-12-13T02:16:30.768Z,17.70
2022-12-13T02:19:31.173Z,17.40
2022-12-13T02:22:16.867Z,17.10
2022-12-13T02:25:04.191Z,16.80
2022-12-13T02:28:30.536Z,16.70
2022-12-13T02:31:08.348Z,16.50
2022-12-13T02:33:58.564Z,16.30
2022-12-13T02:36:36.291Z,16.40
2022-12-13T02:39:03.784Z,16.20
2022-12-13T02:41:53.631Z,16.30
2022-12-13T02:44:37.886Z,16.30
2022-12-13T02:47:12.767Z,16.10
2022-12-13T02:49:53.334Z,16.10
2022-12-13T02:52:23.470Z,16.10
2022-12-13T02:54:50.434Z,15.80
2022-12-13T02:57:35.183Z,16.50
2022-12-13T03:00:17.064Z,17.00
2022-12-13T03:03:22.222Z,17.10
2022-12-13T03:06:12.625Z,16.90
2022-12-13T03:09:17.125Z,16.70
2022-12-13T03:12:23.690Z,16.80
2022-12-13T03:15:07.930Z,16.70
2022-12-13T03:17:43.043Z,16.70
2022-12-13T03:20:12.474Z,17.00
2022-12-13T03:22:49.982Z,16.90
2022-12-13T03:25:30.743Z,17.00
2022-12-13T03:28:01.243Z,17.60
2022-12-13T03:30:30.336Z,17.80
2022-12-13T03:32:57.292Z,17.70
2022-12-13T03:35:25.223Z,17.60
2022-12-13T03:38:02.445Z,17.60
2022-12-13T03:40:30.332Z,17.70
2022-12-13T03:42:57.381Z,17.80
2022-12-13T03:45:24.765Z,18.10
2022-12-13T03:47:51.785Z,18.20
2022-12-13T03:50:27.136Z,17.60
2022-12-13T03:53:01.330Z,17.50
2022-12-13T03:55:28.989Z,17.90
2022-12-13T03:57:56.241Z,17.80
2022-12-13T04:00:23.499Z,17.20
2022-12-13T04:02:50.539Z,17.40
2022-12-13T04:05:18.327Z,17.80
2022-12-13T04:07:48.124Z,17.70
2022-12-13T04:10:26.210Z,18.00
2022-12-13T04:13:13.335Z,17.40
2022-12-13T04:15:49.015Z,17.30
2022-12-13T04:18:20.070Z,17.20
2022-12-13T04:20:47.773Z,17.00
2022-12-13T04:23:15.141Z,16.90
2022-12-13T04:25:42.933Z,16.70
2022-12-13T04:28:11.278Z,16.80
2022-12-13T04:30:38.336Z,16.60
2022-12-13T04:33:05.329Z,16.50
2022-12-13T04:35:32.200Z,16.60
2022-12-13T04:37:59.139Z,16.70
2022-12-13T04:40:26.567Z,17.00
2022-12-13T04:42:54.697Z,17.80
2022-12-13T04:45:23.176Z,17.30
2022-12-13T04:47:50.592Z,17.30
2022-12-13T04:50:17.786Z,17.20
2022-12-13T04:52:45.008Z,17.30
2022-12-13T04:55:12.284Z,17.30
2022-12-13T04:57:39.927Z,17.00
2022-12-13T05:00:09.948Z,17.10
2022-12-13T05:02:37.223Z,17.10
2022-12-13T05:05:04.304Z,17.00
2022-12-13T05:07:31.316Z,17.10
2022-12-13T05:09:58.296Z,17.10
2022-12-13T05:12:25.310Z,17.00
2022-12-13T05:14:53.181Z,16.80
2022-12-13T05:17:21.001Z,16.50
2022-12-13T05:19:47.957Z,16.30
2022-12-13T05:22:20.913Z,16.30
2022-12-13T05:24:48.663Z,16.50
2022-12-13T05:27:24.881Z,16.50
2022-12-13T05:30:03.758Z,16.50
2022-12-13T05:32:44.025Z,16.50
2022-12-13T05:35:16.336Z,16.50
2022-12-13T05:37:54.385Z,16.50
2022-12-13T05:40:23.872Z,16.50
2022-12-13T05:42:51.347Z,16.70
2022-12-13T05:45:19.421Z,17.20
2022-12-13T05:47:46.858Z,16.50
2022-12-13T05:50:15.354Z,16.40
2022-12-13T05:52:45.847Z,16.30
2022-12-13T05:55:12.827Z,16.20
2022-12-13T05:57:39.709Z,16.10
2022-12-13T06:00:30.425Z,16.10
2022-12-13T06:02:57.249Z,16.70
2022-12-13T06:05:27.994Z,16.20
2022-12-13T06:07:57.604Z,16.80
2022-12-13T06:10:34.996Z,16.80
2022-12-13T06:13:21.057Z,17.00
2022-12-13T06:15:51.240Z,17.00
2022-12-13T06:18:18.189Z,17.00
2022-12-13T06:20:46.630Z,16.90
2022-12-13T06:23:13.736Z,16.80
2022-12-13T06:25:40.953Z,16.70
2022-12-13T06:28:07.844Z,16.70
2022-12-13T06:30:34.878Z,16.50
2022-12-13T06:33:01.856Z,16.60
2022-12-13T06:35:30.225Z,16.50
2022-12-13T06:38:01.516Z,16.60
2022-12-13T06:40:30.485Z,16.50
2022-12-13T06:42:57.666Z,16.40
2022-12-13T06:45:25.852Z,16.40
2022-12-13T06:47:52.963Z,16.30
2022-12-13T06:50:19.911Z,16.30
2022-12-13T06:52:47.490Z,16.30
2022-12-13T06:55:14.918Z,16.20
2022-12-13T06:57:50.795Z,16.10
2022-12-13T07:00:21.808Z,16.20
2022-12-13T07:02:55.007Z,16.20
2022-12-13T07:05:22.623Z,16.20
2022-12-13T07:07:50.037Z,16.40
2022-12-13T07:10:22.462Z,16.40
2022-12-13T07:12:50.600Z,16.30
2022-12-13T07:15:18.085Z,16.40
2022-12-13T07:17:44.979Z,16.30
2022-12-13T07:20:13.913Z,16.00
2022-12-13T07:22:47.190Z,16.30
2022-12-13T07:25:27.555Z,16.40
2022-12-13T07:28:06.126Z,16.80
2022-12-13T07:30:40.718Z,17.00
2022-12-13T07:33:09.438Z,17.20
2022-12-13T07:35:37.247Z,17.20
2022-12-13T07:38:05.335Z,17.50
2022-12-13T07:40:35.249Z,17.20
2022-12-13T07:43:02.306Z,17.20
2022-12-13T07:45:30.075Z,17.20
2022-12-13T07:47:57.031Z,17.30
2022-12-13T07:50:25.640Z,17.20
2022-12-13T07:52:53.710Z,17.10
2022-12-13T07:55:23.088Z,17.30
2022-12-13T07:58:08.573Z,17.20
2022-12-13T08:00:37.215Z,17.10
2022-12-13T08:03:05.801Z,18.10
2022-12-13T08:05:38.492Z,17.60
2022-12-13T08:08:08.098Z,17.60
2022-12-13T08:10:35.867Z,17.40
2022-12-13T08:13:04.312Z,17.20
2022-12-13T08:15:31.805Z,17.60
2022-12-13T08:18:01.309Z,17.10
2022-12-13T08:20:28.283Z,16.80
2022-12-13T08:23:01.690Z,16.50
2022-12-13T08:25:29.794Z,16.30
2022-12-13T08:28:01.947Z,16.40
2022-12-13T08:30:33.445Z,16.30
2022-12-13T08:33:04.867Z,16.50
2022-12-13T08:35:34.671Z,16.30
2022-12-13T08:38:02.729Z,16.30
2022-12-13T08:40:29.964Z,16.70
2022-12-13T08:42:57.010Z,17.10
2022-12-13T08:45:25.586Z,17.00
2022-12-13T08:47:52.625Z,16.60
2022-12-13T08:50:21.277Z,16.60
2022-12-13T08:52:48.380Z,16.70
2022-12-13T08:55:15.791Z,16.90
2022-12-13T08:57:43.717Z,16.70
2022-12-13T09:00:14.251Z,16.50
2022-12-13T09:02:43.960Z,16.50
2022-12-13T09:05:12.980Z,16.80
2022-12-13T09:07:41.366Z,16.90
2022-12-13T09:10:25.813Z,16.90
2022-12-13T09:13:01.519Z,16.50
2022-12-13T09:15:34.636Z,16.40
2022-12-13T09:18:05.009Z,16.30
2022-12-13T09:20:41.112Z,16.50
2022-12-13T09:23:14.055Z,16.60
2022-12-13T09:26:05.251Z,16.60
2022-12-13T09:28:35.265Z,16.60
2022-12-13T09:31:06.602Z,16.80
2022-12-13T09:33:40.840Z,16.80
2022-12-13T09:36:12.025Z,17.20
2022-12-13T09:38:39.980Z,16.40
2022-12-13T09:41:30.725Z,16.30
2022-12-13T09:44:31.161Z,16.40
2022-12-13T09:47:01.424Z,16.90
2022-12-13T09:49:41.870Z,16.70
2022-12-13T09:52:21.950Z,16.50
2022-12-13T09:54:53.538Z,16.60
2022-12-13T09:57:32.704Z,16.40
2022-12-13T10:00:17.193Z,16.60
2022-12-13T10:02:58.898Z,16.70
2022-12-13T10:05:40.535Z,16.70
2022-12-13T10:08:20.456Z,16.40
2022-12-13T10:10:56.309Z,17.10
2022-12-13T10:13:27.520Z,17.10
2022-12-13T10:16:23.478Z,17.10
2022-12-13T10:18:51.628Z,17.10
2022-12-13T10:21:41.751Z,17.00
2022-12-13T10:24:27.786Z,17.20
2022-12-13T10:27:35.454Z,17.70
2022-12-13T10:30:28.375Z,17.40
2022-12-13T10:33:03.951Z,17.20
2022-12-13T10:35:36.413Z,17.10
2022-12-13T10:38:32.040Z,17.00
2022-12-13T10:41:01.317Z,16.90
2022-12-13T10:43:30.635Z,16.60
2022-12-13T10:45:59.691Z,16.50
2022-12-13T10:48:52.568Z,16.20
2022-12-13T10:51:22.883Z,16.20
2022-12-13T10:54:01.390Z,16.00
2022-12-13T10:56:47.037Z,16.10
2022-12-13T10:59:26.813Z,16.20
2022-12-13T11:01:56.020Z,16.50
2022-12-13T11:04:36.180Z,17.00
2022-12-13T11:07:28.126Z,17.90
2022-12-13T11:09:56.847Z,18.20
2022-12-13T11:12:33.110Z,18.60
2022-12-13T11:15:07.723Z,18.90
2022-12-13T11:17:45.750Z,19.70
2022-12-13T11:20:25.047Z,20.30
2022-12-13T11:23:12.492Z,19.80
2022-12-13T11:25:43.696Z,19.50
2022-12-13T11:28:25.930Z,19.20
2022-12-13T11:31:25.344Z,19.10
2022-12-13T11:34:09.519Z,19.50
2022-12-13T11:36:50.702Z,19.50
2022-12-13T11:39:23.649Z,19.60
2022-12-13T11:42:15.056Z,19.70
2022-12-13T11:44:54.143Z,19.80
2022-12-13T11:47:46.150Z,19.60
2022-12-13T11:50:42.487Z,19.60
2022-12-13T11:53:48.352Z,19.80
2022-12-13T11:56:38.779Z,20.00
2022-12-13T11:59:46.524Z,20.50
2022-12-13T12:02:26.963Z,20.90
2022-12-13T12:05:00.465Z,21.10
2022-12-13T12:08:05.099Z,20.90
2022-12-13T12:10:49.304Z,20.80
2022-12-13T12:13:50.925Z,20.60
2022-12-13T12:16:36.390Z,20.40
2022-12-13T12:19:03.752Z,20.70
2022-12-13T12:22:12.844Z,20.60
2022-12-13T12:24:40.680Z,20.70
2022-12-13T12:27:32.174Z,21.10
2022-12-13T12:30:23.259Z,21.40
2022-12-13T12:32:59.167Z,21.50
2022-12-13T12:35:31.840Z,21.00
2022-12-13T12:38:01.471Z,21.10
2022-12-13T12:40:52.135Z,21.00
2022-12-13T12:43:43.620Z,21.40
2022-12-13T12:46:28.382Z,21.50
2022-12-13T12:49:31.452Z,20.90
2022-12-13T12:52:13.870Z,20.30
2022-12-13T12:54:41.470Z,20.00
2022-12-13T12:57:53.417Z,19.80
2022-12-13T13:00:22.969Z,19.90
2022-12-13T13:03:15.798Z,20.20
2022-12-13T13:06:02.570Z,20.10
2022-12-13T13:08:55.088Z,19.80
2022-12-13T13:11:26.249Z,19.60
2022-12-13T13:14:05.599Z,19.70
2022-12-13T13:16:45.197Z,19.30
2022-12-13T13:19:13.518Z,18.90
2022-12-13T13:21:49.577Z,18.80
2022-12-13T13:24:18.073Z,19.10
2022-12-13T13:26:50.637Z,19.30
2022-12-13T13:29:27.110Z,19.20
2022-12-13T13:32:29.624Z,19.20
2022-12-13T13:35:29.075Z,19.20
2022-12-13T13:37:57.345Z,18.80
2022-12-13T13:40:53.147Z,19.10
2022-12-13T13:43:32.547Z,18.90
2022-12-13T13:46:10.994Z,18.60
2022-12-13T13:49:00.085Z,19.00
2022-12-13T13:51:29.852Z,19.20
2022-12-13T13:54:15.216Z,19.20
2022-12-13T13:57:12.225Z,19.30
2022-12-13T14:00:24.128Z,19.60
2022-12-13T14:03:08.944Z,19.60
2022-12-13T14:05:54.638Z,19.40
2022-12-13T14:08:43.439Z,19.40
2022-12-13T14:11:16.429Z,19.00
2022-12-13T14:14:21.293Z,18.90
2022-12-13T14:17:42.178Z,19.00
2022-12-13T14:20:26.437Z,19.60
2022-12-13T14:23:12.271Z,19.30
2022-12-13T14:25:57.427Z,19.00
2022-12-13T14:28:50.826Z,18.80
2022-12-13T14:31:28.284Z,18.80
2022-12-13T14:33:58.128Z,18.50
2022-12-13T14:36:35.719Z,18.50
2022-12-13T14:39:06.006Z,18.60
2022-12-13T14:41:34.058Z,18.20
2022-12-13T14:44:31.492Z,18.70
2022-12-13T14:47:08.108Z,18.80
2022-12-13T14:49:41.868Z,18.30
2022-12-13T14:52:32.609Z,18.20
2022-12-13T14:55:04.627Z,18.50
2022-12-13T14:57:33.621Z,19.00
2022-12-13T15:00:20.462Z,18.90
2022-12-13T15:02:53.137Z,18.60
2022-12-13T15:05:29.572Z,18.60
2022-12-13T15:07:57.375Z,17.90
2022-12-13T15:10:33.223Z,18.00
2022-12-13T15:13:00.599Z,18.20
2022-12-13T15:15:33.189Z,18.30
2022-12-13T15:18:20.295Z,18.20
2022-12-13T15:20:48.687Z,18.00
2022-12-13T15:23:21.447Z,18.20
2022-12-13T15:26:08.351Z,18.10
2022-12-13T15:28:40.213Z,18.20
2022-12-13T15:31:07.966Z,18.60
2022-12-13T15:33:40.841Z,19.00
2022-12-13T15:36:19.748Z,18.60
2022-12-13T15:38:53.584Z,18.90
2022-12-13T15:41:25.156Z,19.10
2022-12-13T15:43:56.325Z,18.90
2022-12-13T15:46:30.103Z,18.90
2022-12-13T15:49:00.000Z,19.30
2022-12-13T15:51:28.893Z,19.80
2022-12-13T15:54:05.092Z,19.80
2022-12-13T15:56:56.514Z,20.20
2022-12-13T15:59:29.865Z,20.30
2022-12-13T16:01:58.668Z,20.10
2022-12-13T16:04:28.796Z,20.80
2022-12-13T16:06:56.154Z,21.40
2022-12-13T16:09:27.530Z,22.10
2022-12-13T16:12:08.916Z,22.10
2022-12-13T16:14:48.980Z,21.60
2022-12-13T16:17:22.202Z,21.40
2022-12-13T16:19:49.351Z,21.10
2022-12-13T16:22:17.842Z,20.70
2022-12-13T16:24:44.899Z,21.40
2022-12-13T16:27:13.019Z,21.50
2022-12-13T16:29:41.614Z,21.60
2022-12-13T16:32:09.149Z,20.90
2022-12-13T16:34:40.073Z,20.40
2022-12-13T16:37:26.236Z,20.60
2022-12-13T16:39:54.197Z,21.00
2022-12-13T16:42:26.367Z,21.60
2022-12-13T16:45:11.590Z,21.60
2022-12-13T16:47:48.931Z,21.00
2022-12-13T16:50:19.172Z,20.40
2022-12-13T16:52:46.283Z,20.80
2022-12-13T16:55:13.227Z,20.50
2022-12-13T16:57:40.241Z,20.00
2022-12-13T17:00:11.096Z,19.90
2022-12-13T17:02:38.479Z,20.00
2022-12-13T17:05:06.079Z,19.70
2022-12-13T17:07:33.585Z,19.30
2022-12-13T17:10:00.739Z,19.00
2022-12-13T17:12:27.749Z,18.80
2022-12-13T17:14:54.783Z,19.00
2022-12-13T17:17:21.896Z,19.10
2022-12-13T17:19:48.840Z,19.20
2022-12-13T17:22:15.835Z,19.20
2022-12-13T17:24:42.872Z,19.40
2022-12-13T17:27:09.991Z,18.90
2022-12-13T17:29:37.013Z,18.60
2022-12-13T17:32:05.079Z,18.90
2022-12-13T17:34:32.015Z,18.70
2022-12-13T17:36:58.963Z,18.80
2022-12-13T17:39:26.028Z,18.90
2022-12-13T17:41:54.852Z,18.90
2022-12-13T17:44:23.470Z,18.70
2022-12-13T17:46:54.867Z,18.80
2022-12-13T17:49:22.715Z,19.20
2022-12-13T17:51:51.302Z,19.30
2022-12-13T17:54:19.857Z,19.30
2022-12-13T17:56:47.321Z,19.60
2022-12-13T17:59:15.418Z,20.00
2022-12-13T18:01:46.026Z,20.00
2022-12-13T18:04:13.401Z,19.80
2022-12-13T18:06:40.870Z,19.70
2022-12-13T18:09:09.238Z,19.50
2022-12-13T18:11:36.230Z,19.40
2022-12-13T18:14:08.459Z,19.40
2022-12-13T18:16:38.280Z,19.80
2022-12-13T18:19:08.510Z,19.80
2022-12-13T18:21:36.915Z,19.80
2022-12-13T18:24:05.718Z,19.80
2022-12-13T18:26:33.191Z,20.10
2022-12-13T18:29:00.612Z,19.80
2022-12-13T18:31:28.179Z,19.60
2022-12-13T18:33:55.417Z,20.00
2022-12-13T18:36:24.759Z,20.30
2022-12-13T18:38:52.021Z,20.20
2022-12-13T18:41:24.590Z,20.10
2022-12-13T18:44:00.013Z,19.80
2022-12-13T18:46:28.375Z,19.60
2022-12-13T18:48:55.641Z,19.70
2022-12-13T18:51:22.903Z,19.80
2022-12-13T18:53:51.880Z,19.90
2022-12-13T18:56:19.622Z,19.90
2022-12-13T18:58:48.480Z,20.10
2022-12-13T19:01:16.275Z,20.50
2022-12-13T19:03:46.089Z,20.00
2022-12-13T19:06:18.477Z,20.20
2022-12-13T19:08:51.648Z,20.40
2022-12-13T19:11:19.793Z,20.90
2022-12-13T19:13:48.084Z,22.10
2022-12-13T19:16:17.839Z,22.40
2022-12-13T19:18:45.490Z,22.30
2022-12-13T19:21:16.431Z,22.40
2022-12-13T19:23:43.585Z,22.40
2022-12-13T19:26:14.098Z,23.00
2022-12-13T19:28:45.795Z,22.70
2022-12-13T19:31:14.504Z,22.50
2022-12-13T19:33:42.865Z,22.40
2022-12-13T19:36:10.900Z,22.00
2022-12-13T19:38:38.559Z,21.90
2022-12-13T19:41:15.066Z,22.00
2022-12-13T19:43:46.499Z,21.90
2022-12-13T19:46:19.708Z,22.00
2022-12-13T19:48:46.969Z,21.10
2022-12-13T19:51:13.967Z,20.90
2022-12-13T19:53:41.678Z,21.60
2022-12-13T19:56:15.345Z,22.00
2022-12-13T19:58:42.245Z,22.20
2022-12-13T20:01:09.691Z,22.80
2022-12-13T20:03:43.070Z,23.00
2022-12-13T20:06:13.602Z,23.40
2022-12-13T20:08:40.800Z,24.40
2022-12-13T20:11:11.048Z,24.30
2022-12-13T20:13:38.042Z,23.90
2022-12-13T20:16:05.476Z,23.70
2022-12-13T20:18:33.480Z,23.60
2022-12-13T20:21:14.241Z,24.30
2022-12-13T20:23:49.402Z,23.60
2022-12-13T20:26:22.768Z,23.30
2022-12-13T20:28:50.978Z,22.80
2022-12-13T20:31:20.380Z,22.70
2022-12-13T20:33:48.354Z,22.60
2022-12-13T20:36:27.373Z,22.80
2022-12-13T20:38:59.855Z,22.80
2022-12-13T20:41:28.524Z,22.70
2022-12-13T20:43:57.749Z,22.70
2022-12-13T20:46:26.169Z,22.30
2022-12-13T20:48:57.789Z,22.50
2022-12-13T20:51:27.892Z,22.80
2022-12-13T20:53:55.456Z,22.50
2022-12-13T20:56:27.998Z,22.00
2022-12-13T20:58:55.696Z,22.40
2022-12-13T21:01:27.870Z,21.90
2022-12-13T21:03:58.502Z,21.90
2022-12-13T21:06:25.840Z,21.50
2022-12-13T21:08:54.914Z,21.20
2022-12-13T21:11:30.611Z,21.60
2022-12-13T21:14:20.727Z,22.50
2022-12-13T21:16:57.378Z,23.40
2022-12-13T21:19:34.396Z,24.20
2022-12-13T21:22:04.730Z,24.20
2022-12-13T21:24:31.843Z,23.30
2022-12-13T21:26:59.983Z,22.90
2022-12-13T21:29:28.309Z,23.10
2022-12-13T21:31:56.214Z,23.00
2022-12-13T21:34:23.683Z,22.70
2022-12-13T21:36:52.546Z,22.00
2022-12-13T21:39:24.914Z,22.40
2022-12-13T21:41:54.037Z,22.20
2022-12-13T21:44:21.616Z,22.80
2022-12-13T21:49:35.988Z,22.30
2022-12-13T21:52:03.006Z,22.30
2022-12-13T21:54:29.933Z,22.50
2022-12-13T21:57:15.716Z,22.50
2022-12-13T21:59:42.952Z,22.70
2022-12-13T22:02:19.161Z,23.50
2022-12-13T22:04:53.657Z,23.90
2022-12-13T22:07:25.973Z,24.10
2022-12-13T22:09:54.069Z,24.40
2022-12-13T22:12:22.550Z,25.00
2022-12-13T22:14:50.485Z,24.60
2022-12-13T22:17:19.386Z,23.70
2022-12-13T22:19:48.976Z,24.10
2022-12-13T22:22:17.558Z,23.80
2022-12-13T22:24:49.857Z,23.80
2022-12-13T22:27:23.923Z,23.90
2022-12-13T22:29:58.270Z,23.80
2022-12-13T22:32:27.128Z,23.40
2022-12-13T22:34:56.218Z,23.30
2022-12-13T22:37:24.173Z,23.30
2022-12-13T22:39:51.125Z,23.30
2022-12-13T22:42:18.058Z,23.20
2022-12-13T22:44:44.954Z,23.00
2022-12-13T22:47:11.923Z,23.10
2022-12-13T22:49:38.884Z,22.70
2022-12-13T22:52:05.991Z,22.40
2022-12-13T22:54:32.889Z,22.40
2022-12-13T22:56:59.817Z,22.50
2022-12-13T22:59:26.699Z,22.10
2022-12-13T23:02:01.416Z,22.10
2022-12-13T23:04:29.528Z,21.90
2022-12-13T23:06:56.446Z,21.30
2022-12-13T23:09:23.330Z,21.10
2022-12-13T23:12:09.045Z,21.00
2022-12-13T23:14:36.003Z,20.70
2022-12-13T23:17:03.619Z,20.40
2022-12-13T23:19:50.167Z,20.00
2022-12-13T23:22:19.863Z,19.60
2022-12-13T23:24:46.809Z,19.60
2022-12-13T23:27:13.802Z,19.60
2022-12-13T23:29:40.808Z,19.20
2022-12-13T23:32:07.727Z,18.90
2022-12-13T23:34:34.726Z,19.30
2022-12-13T23:37:01.637Z,18.50
2022-12-13T23:39:28.730Z,18.50
2022-12-13T23:41:55.574Z,18.40
2022-12-13T23:44:22.613Z,18.40
2022-12-13T23:46:49.572Z,18.40
2022-12-13T23:49:17.070Z,18.40
2022-12-13T23:51:43.961Z,18.50
2022-12-13T23:54:17.777Z,18.40
2022-12-13T23:56:44.927Z,18.40
2022-12-13T23:59:11.844Z,18.50
